Walloon Lake, Michigan
Current Conditions -  °F | °C
As of 8:15 PM on Monday 26 Jan 2015 (Local Time) from KMGN Reporting Station
Clear Clear  
Wind Chill:   Ceiling: Unl
Heat Index: 16°   Visibility: 10mi
Dew Point:   Wind: 7mph
Humidity: 68%   Direction: 70°ENE
Pressure: 30"   Gusts: NA
Location:  45.27°N, 84.93°W
Report Text: KMGN 270115Z AUTO 07006KT 10SM CLR M08/M13 A3000 RMK AO2 T10881137
Loading
Personal Weather Stations






























Interactive Weather Map New forecast layout! Learn more

10-Day Weather Forecast

Advertisements
Track Severe Weather on mobile